createdAt,value
2018-02-22T00:01:38.933Z,90.40
2018-02-22T00:04:07.783Z,90.40
2018-02-22T00:06:39.866Z,90.50
2018-02-22T00:09:07.608Z,90.40
2018-02-22T00:11:35.162Z,90.50
2018-02-22T00:14:03.553Z,90.60
2018-02-22T00:16:31.103Z,90.50
2018-02-22T00:18:59.472Z,90.70
2018-02-22T00:21:27.970Z,90.50
2018-02-22T00:23:56.345Z,90.70
2018-02-22T00:26:24.728Z,90.60
2018-02-22T00:28:53.035Z,90.70
2018-02-22T00:31:20.633Z,90.60
2018-02-22T00:33:48.198Z,90.60
2018-02-22T00:36:15.796Z,90.60
2018-02-22T00:38:44.108Z,90.80
2018-02-22T00:41:11.614Z,90.60
2018-02-22T00:43:39.119Z,90.80
2018-02-22T00:46:06.638Z,90.80
2018-02-22T00:48:34.929Z,91.00
2018-02-22T00:51:02.485Z,90.90
2018-02-22T00:53:30.748Z,91.10
2018-02-22T00:55:59.020Z,91.20
2018-02-22T00:58:27.354Z,91.10
2018-02-22T01:00:54.924Z,90.90
2018-02-22T01:03:22.519Z,91.00
2018-02-22T01:05:50.475Z,91.10
2018-02-22T01:08:18.024Z,91.00
2018-02-22T01:10:45.927Z,91.10
2018-02-22T01:13:14.399Z,91.30
2018-02-22T01:15:42.751Z,91.40
2018-02-22T01:18:10.448Z,91.30
2018-02-22T01:20:37.997Z,91.40
2018-02-22T01:23:06.264Z,91.50
2018-02-22T01:25:34.536Z,91.50
2018-02-22T01:28:02.014Z,91.50
2018-02-22T01:30:29.585Z,91.30
2018-02-22T01:32:57.283Z,91.40
2018-02-22T01:35:24.794Z,91.30
2018-02-22T01:37:52.346Z,91.40
2018-02-22T01:40:19.906Z,91.60
2018-02-22T01:42:48.199Z,91.80
2018-02-22T01:45:16.481Z,91.80
2018-02-22T01:47:44.736Z,92.00
2018-02-22T01:50:13.084Z,91.80
2018-02-22T01:52:40.637Z,91.90
2018-02-22T01:55:08.137Z,92.00
2018-02-22T01:57:35.678Z,92.00
2018-02-22T02:00:03.218Z,92.00
2018-02-22T02:02:30.709Z,92.10
2018-02-22T02:04:58.263Z,92.20
2018-02-22T02:07:26.534Z,92.40
2018-02-22T02:09:54.818Z,92.50
2018-02-22T02:12:23.150Z,92.50
2018-02-22T02:14:50.649Z,92.00
2018-02-22T02:17:18.214Z,92.30
2018-02-22T02:19:46.492Z,92.40
2018-02-22T02:22:13.989Z,92.30
2018-02-22T02:24:41.714Z,92.60
2018-02-22T02:27:09.229Z,92.30
2018-02-22T02:29:36.712Z,92.20
2018-02-22T02:32:04.227Z,92.20
2018-02-22T02:34:31.727Z,92.20
2018-02-22T02:36:59.247Z,92.40
2018-02-22T02:39:26.800Z,92.10
2018-02-22T02:41:54.338Z,92.40
2018-02-22T02:44:21.885Z,92.10
2018-02-22T02:46:50.142Z,92.50
2018-02-22T02:49:17.677Z,92.40
2018-02-22T02:51:45.184Z,92.40
2018-02-22T02:54:13.448Z,92.70
2018-02-22T02:56:41.737Z,92.80
2018-02-22T02:59:10.117Z,92.50
2018-02-22T03:01:37.640Z,92.70
2018-02-22T03:04:05.167Z,92.40
2018-02-22T03:06:32.708Z,92.60
2018-02-22T03:09:00.234Z,92.40
2018-02-22T03:11:27.766Z,92.60
2018-02-22T03:13:55.300Z,92.70
2018-02-22T03:16:22.810Z,92.30
2018-02-22T03:18:50.365Z,92.60
2018-02-22T03:21:17.929Z,92.60
2018-02-22T03:23:45.463Z,93.80
2018-02-22T03:26:13.725Z,92.60
2018-02-22T03:28:41.233Z,92.50
2018-02-22T03:31:09.661Z,92.60
2018-02-22T03:33:37.174Z,92.70
2018-02-22T03:36:04.704Z,92.70
2018-02-22T03:38:32.224Z,92.80
2018-02-22T03:40:59.742Z,93.00
2018-02-22T03:43:27.271Z,93.00
2018-02-22T03:45:54.816Z,92.90
2018-02-22T03:48:22.336Z,92.70
2018-02-22T03:50:50.087Z,93.10
2018-02-22T03:53:17.635Z,93.10
2018-02-22T03:55:45.912Z,93.20
2018-02-22T03:58:13.477Z,93.00
2018-02-22T04:00:41.015Z,92.90
2018-02-22T04:03:08.493Z,93.00
2018-02-22T04:05:36.021Z,93.10
2018-02-22T04:08:03.576Z,93.20
2018-02-22T04:10:31.069Z,93.30
2018-02-22T04:12:58.883Z,93.50
2018-02-22T04:15:27.373Z,93.50
2018-02-22T04:17:54.928Z,93.70
2018-02-22T04:20:24.132Z,93.80
2018-02-22T04:22:51.669Z,94.00
2018-02-22T04:25:19.249Z,93.50
2018-02-22T04:27:46.752Z,93.40
2018-02-22T04:30:14.566Z,93.50
2018-02-22T04:32:42.067Z,93.60
2018-02-22T04:35:09.565Z,93.50
2018-02-22T04:37:37.084Z,93.40
2018-02-22T04:40:05.419Z,93.40
2018-02-22T04:42:32.916Z,93.30
2018-02-22T04:45:00.427Z,92.90
2018-02-22T04:47:27.979Z,93.10
2018-02-22T04:49:55.656Z,92.70
2018-02-22T04:52:23.147Z,92.80
2018-02-22T04:54:50.696Z,92.90
2018-02-22T04:57:18.212Z,92.90
2018-02-22T04:59:45.694Z,92.90
2018-02-22T05:02:13.231Z,92.80
2018-02-22T05:04:40.758Z,92.90
2018-02-22T05:07:08.293Z,92.90
2018-02-22T05:09:36.588Z,93.20
2018-02-22T05:12:04.177Z,93.10
2018-02-22T05:14:31.753Z,93.10
2018-02-22T05:16:59.280Z,93.10
2018-02-22T05:19:26.813Z,93.10
2018-02-22T05:21:54.586Z,92.90
2018-02-22T05:24:22.863Z,93.00
2018-02-22T05:26:50.504Z,93.30
2018-02-22T05:29:18.113Z,93.30
2018-02-22T05:31:45.625Z,93.50
2018-02-22T05:34:13.156Z,93.20
2018-02-22T05:36:41.156Z,93.40
2018-02-22T05:39:08.689Z,93.40
2018-02-22T05:41:36.583Z,93.40
2018-02-22T05:44:11.579Z,93.70
2018-02-22T05:46:40.456Z,93.60
2018-02-22T05:49:08.031Z,93.60
2018-02-22T05:51:35.580Z,93.60
2018-02-22T05:54:03.164Z,93.40
2018-02-22T05:56:30.755Z,93.30
2018-02-22T05:58:58.262Z,93.50
2018-02-22T06:01:26.017Z,93.20
2018-02-22T06:03:53.571Z,93.30
2018-02-22T06:06:21.095Z,93.30
2018-02-22T06:08:48.645Z,93.60
2018-02-22T06:11:16.178Z,93.60
2018-02-22T06:13:44.123Z,93.40
2018-02-22T06:16:11.647Z,93.70
2018-02-22T06:18:39.192Z,93.50
2018-02-22T06:21:07.565Z,93.50
2018-02-22T06:23:37.382Z,93.60
2018-02-22T06:26:05.066Z,93.60
2018-02-22T06:28:32.584Z,93.70
2018-02-22T06:31:00.154Z,93.40
2018-02-22T06:33:27.700Z,93.70
2018-02-22T06:35:55.236Z,93.50
2018-02-22T06:38:22.784Z,93.50
2018-02-22T06:40:50.349Z,93.50
2018-02-22T06:43:17.862Z,93.50
2018-02-22T06:45:45.415Z,93.50
2018-02-22T06:48:12.977Z,93.50
2018-02-22T06:50:40.538Z,93.40
2018-02-22T06:53:08.470Z,93.30
2018-02-22T06:55:35.974Z,93.40
2018-02-22T06:58:03.492Z,93.40
2018-02-22T07:00:31.032Z,93.40
2018-02-22T07:02:58.584Z,93.50
2018-02-22T07:05:26.058Z,93.30
2018-02-22T07:07:53.541Z,93.40
2018-02-22T07:10:21.795Z,93.70
2018-02-22T07:12:49.287Z,93.70
2018-02-22T07:15:16.835Z,93.40
2018-02-22T07:17:44.370Z,93.40
2018-02-22T07:20:12.067Z,93.60
2018-02-22T07:22:39.562Z,93.50
2018-02-22T07:25:07.029Z,93.20
2018-02-22T07:27:34.620Z,93.20
2018-02-22T07:30:02.114Z,93.20
2018-02-22T07:32:32.325Z,93.10
2018-02-22T07:35:00.242Z,93.30
2018-02-22T07:37:27.725Z,92.90
2018-02-22T07:39:56.135Z,93.00
2018-02-22T07:42:23.620Z,92.60
2018-02-22T07:44:51.129Z,92.90
2018-02-22T07:47:18.628Z,91.50
2018-02-22T07:49:46.132Z,91.50
2018-02-22T07:52:14.081Z,91.80
2018-02-22T07:54:41.580Z,91.80
2018-02-22T07:57:09.096Z,91.60
2018-02-22T07:59:36.605Z,91.80
2018-02-22T08:02:04.143Z,91.40
2018-02-22T08:04:32.409Z,91.60
2018-02-22T08:06:59.881Z,91.20
2018-02-22T08:09:27.351Z,91.20
2018-02-22T08:11:54.843Z,91.00
2018-02-22T08:14:22.348Z,91.30
2018-02-22T08:16:49.834Z,90.60
2018-02-22T08:19:17.360Z,90.30
2018-02-22T08:21:44.837Z,90.50
2018-02-22T08:24:12.335Z,90.50
2018-02-22T08:26:39.826Z,90.20
2018-02-22T08:29:07.307Z,90.00
2018-02-22T08:31:34.812Z,90.30
2018-02-22T08:34:02.305Z,88.90
2018-02-22T08:36:29.819Z,88.90
2018-02-22T08:38:57.331Z,88.60
2018-02-22T08:41:25.589Z,88.60
2018-02-22T08:43:53.121Z,88.20
2018-02-22T08:46:20.713Z,88.50
2018-02-22T08:48:48.209Z,88.30
2018-02-22T08:51:18.008Z,86.40
2018-02-22T08:53:45.508Z,87.10
2018-02-22T08:56:15.430Z,84.80
2018-02-22T08:58:42.934Z,85.30
2018-02-22T09:01:10.411Z,85.70
2018-02-22T09:03:38.234Z,83.60
2018-02-22T09:06:06.464Z,83.50
2018-02-22T09:08:33.937Z,83.40
2018-02-22T09:11:01.413Z,83.10
2018-02-22T09:13:29.429Z,82.40
2018-02-22T09:15:56.920Z,82.00
2018-02-22T09:18:24.386Z,80.70
2018-02-22T09:20:52.899Z,80.60
2018-02-22T09:23:20.392Z,79.60
2018-02-22T09:25:47.903Z,79.80
2018-02-22T09:28:15.386Z,77.90
2018-02-22T09:30:42.849Z,77.40
2018-02-22T09:33:10.355Z,78.80
2018-02-22T09:35:37.820Z,77.00
2018-02-22T09:38:05.790Z,74.20
2018-02-22T09:40:33.247Z,74.20
2018-02-22T09:43:02.441Z,74.60
2018-02-22T09:45:30.719Z,74.70
2018-02-22T09:47:58.228Z,74.80
2018-02-22T09:50:25.715Z,72.80
2018-02-22T09:52:53.228Z,71.10
2018-02-22T09:55:20.711Z,71.30
2018-02-22T09:57:48.216Z,71.10
2018-02-22T10:00:16.977Z,71.50
2018-02-22T10:02:44.469Z,70.10
2018-02-22T10:05:11.961Z,69.20
2018-02-22T10:07:39.444Z,68.00
2018-02-22T10:10:06.929Z,68.90
2018-02-22T10:12:34.421Z,69.10
2018-02-22T10:15:01.916Z,68.10
2018-02-22T10:17:29.470Z,68.60
2018-02-22T10:19:56.909Z,68.00
2018-02-22T10:22:24.411Z,67.40
2018-02-22T10:24:51.887Z,66.00
2018-02-22T10:27:20.144Z,65.10
2018-02-22T10:29:47.593Z,65.00
2018-02-22T10:32:15.355Z,62.30
2018-02-22T10:34:42.844Z,65.50
2018-02-22T10:37:11.062Z,64.50
2018-02-22T10:39:38.706Z,64.50
2018-02-22T10:42:06.202Z,63.50
2018-02-22T10:44:33.672Z,64.10
2018-02-22T10:47:01.175Z,64.50
2018-02-22T10:49:28.633Z,62.90
2018-02-22T10:51:56.148Z,63.40
2018-02-22T10:54:23.639Z,63.20
2018-02-22T10:56:52.589Z,62.30
2018-02-22T10:59:20.064Z,62.20
2018-02-22T11:01:53.084Z,63.60
2018-02-22T11:04:20.574Z,63.60
2018-02-22T11:06:48.063Z,63.00
2018-02-22T11:09:15.562Z,62.80
2018-02-22T11:11:43.924Z,63.00
2018-02-22T11:14:16.127Z,64.00
2018-02-22T11:16:43.641Z,63.90
2018-02-22T11:19:11.159Z,63.40
2018-02-22T11:21:38.678Z,63.10
2018-02-22T11:24:06.227Z,63.10
2018-02-22T11:26:34.559Z,62.90
2018-02-22T11:29:02.075Z,62.60
2018-02-22T11:31:29.570Z,62.10
2018-02-22T11:33:57.088Z,62.30
2018-02-22T11:36:24.592Z,61.20
2018-02-22T11:38:52.078Z,61.90
2018-02-22T11:41:20.344Z,61.70
2018-02-22T11:43:50.806Z,61.90
2018-02-22T11:46:18.339Z,62.70
2018-02-22T11:48:46.561Z,60.70
2018-02-22T11:51:14.034Z,60.60
2018-02-22T11:53:41.541Z,61.00
2018-02-22T11:56:09.796Z,60.70
2018-02-22T11:58:37.299Z,60.70
2018-02-22T12:01:06.658Z,59.40
2018-02-22T12:03:34.929Z,60.30
2018-02-22T12:06:02.426Z,60.20
2018-02-22T12:08:29.952Z,60.80
2018-02-22T12:10:58.394Z,59.50
2018-02-22T12:13:25.891Z,59.40
2018-02-22T12:15:54.147Z,60.90
2018-02-22T12:18:21.631Z,60.90
2018-02-22T12:20:50.320Z,59.30
2018-02-22T12:23:18.567Z,58.70
2018-02-22T12:25:46.046Z,57.90
2018-02-22T12:28:14.268Z,58.60
2018-02-22T12:30:41.784Z,58.30
2018-02-22T12:33:10.042Z,59.50
2018-02-22T12:35:37.532Z,59.30
2018-02-22T12:38:05.064Z,59.00
2018-02-22T12:40:32.489Z,58.80
2018-02-22T12:42:59.962Z,60.50
2018-02-22T12:45:27.461Z,59.80
2018-02-22T12:47:54.943Z,61.00
2018-02-22T12:50:22.416Z,59.50
2018-02-22T12:52:49.903Z,59.80
2018-02-22T12:55:17.384Z,60.00
2018-02-22T12:57:44.864Z,60.00
2018-02-22T13:00:12.374Z,59.70
2018-02-22T13:02:40.607Z,59.30
2018-02-22T13:05:08.188Z,58.70
2018-02-22T13:07:35.716Z,59.60
2018-02-22T13:10:03.234Z,59.10
2018-02-22T13:12:31.312Z,59.10
2018-02-22T13:14:58.806Z,60.10
2018-02-22T13:17:26.286Z,57.30
2018-02-22T13:19:53.825Z,57.50
2018-02-22T13:22:21.305Z,57.60
2018-02-22T13:24:50.114Z,57.30
2018-02-22T13:27:19.533Z,59.40
2018-02-22T13:29:47.166Z,58.40
2018-02-22T13:32:14.664Z,58.90
2018-02-22T13:34:42.994Z,60.00
2018-02-22T13:37:22.432Z,58.30
2018-02-22T13:39:49.910Z,58.20
2018-02-22T13:42:18.110Z,58.00
2018-02-22T13:44:57.298Z,59.80
2018-02-22T13:47:24.880Z,58.90
2018-02-22T13:50:04.869Z,60.00
2018-02-22T13:52:33.040Z,60.50
2018-02-22T13:55:00.585Z,60.60
2018-02-22T13:57:28.242Z,60.30
2018-02-22T13:59:55.737Z,59.60
2018-02-22T14:02:26.196Z,58.20
2018-02-22T14:04:55.012Z,58.30
2018-02-22T14:07:22.553Z,59.10
2018-02-22T14:09:50.022Z,56.20
2018-02-22T14:12:17.500Z,56.00
2018-02-22T14:14:45.443Z,57.10
2018-02-22T14:17:13.720Z,56.90
2018-02-22T14:19:41.212Z,57.50
2018-02-22T14:22:08.719Z,57.70
2018-02-22T14:24:36.193Z,59.30
2018-02-22T14:27:04.452Z,60.00
2018-02-22T14:29:31.959Z,60.70
2018-02-22T14:31:59.483Z,59.50
2018-02-22T14:34:27.692Z,54.20
2018-02-22T14:36:55.165Z,54.10
2018-02-22T14:39:22.668Z,54.70
2018-02-22T14:41:50.907Z,56.40
2018-02-22T14:44:18.415Z,56.40
2018-02-22T14:46:46.674Z,56.20
2018-02-22T14:49:14.176Z,56.20
2018-02-22T14:51:41.668Z,57.80
2018-02-22T14:54:09.143Z,57.90
2018-02-22T14:56:36.642Z,59.40
2018-02-22T14:59:04.116Z,58.20
2018-02-22T15:01:31.653Z,58.70
2018-02-22T15:03:59.170Z,59.10
2018-02-22T15:06:26.681Z,58.60
2018-02-22T15:08:54.168Z,59.60
2018-02-22T15:11:21.671Z,58.90
2018-02-22T15:13:49.137Z,57.00
2018-02-22T15:16:16.619Z,57.20
2018-02-22T15:18:44.515Z,58.10
2018-02-22T15:21:12.031Z,59.10
2018-02-22T15:23:39.525Z,58.70
2018-02-22T15:26:07.032Z,58.90
2018-02-22T15:28:34.538Z,59.50
2018-02-22T15:31:02.011Z,60.50
2018-02-22T15:33:29.487Z,60.10
2018-02-22T15:35:57.744Z,60.20
2018-02-22T15:38:25.236Z,60.20
2018-02-22T15:40:52.718Z,59.70
2018-02-22T15:43:20.213Z,58.60
2018-02-22T15:45:48.182Z,59.90
2018-02-22T15:48:16.571Z,59.80
2018-02-22T15:50:44.814Z,59.30
2018-02-22T15:53:12.343Z,59.20
2018-02-22T15:55:40.088Z,58.30
2018-02-22T15:58:07.604Z,59.20
2018-02-22T16:00:35.094Z,61.50
2018-02-22T16:03:03.530Z,64.30
2018-02-22T16:05:31.015Z,64.20
2018-02-22T16:07:58.539Z,64.90
2018-02-22T16:10:26.045Z,65.30
2018-02-22T16:12:54.280Z,66.40
2018-02-22T16:15:21.785Z,66.30
2018-02-22T16:17:49.279Z,67.00
2018-02-22T16:20:16.752Z,67.30
2018-02-22T16:22:44.309Z,67.00
2018-02-22T16:25:11.857Z,67.40
2018-02-22T16:27:39.334Z,67.90
2018-02-22T16:30:06.825Z,68.60
2018-02-22T16:32:35.099Z,69.30
2018-02-22T16:35:03.465Z,70.00
2018-02-22T16:37:30.918Z,69.80
2018-02-22T16:39:58.458Z,69.20
2018-02-22T16:42:25.950Z,68.60
2018-02-22T16:44:54.244Z,69.50
2018-02-22T16:47:22.519Z,69.90
2018-02-22T16:49:50.074Z,69.70
2018-02-22T16:52:18.390Z,70.30
2018-02-22T16:54:45.914Z,69.10
2018-02-22T16:57:13.404Z,69.80
2018-02-22T16:59:41.215Z,70.50
2018-02-22T17:02:09.516Z,70.10
2018-02-22T17:04:37.453Z,70.00
2018-02-22T17:07:06.188Z,70.00
2018-02-22T17:09:33.683Z,70.30
2018-02-22T17:12:01.209Z,70.70
2018-02-22T17:14:29.290Z,70.60
2018-02-22T17:16:56.761Z,71.10
2018-02-22T17:19:24.306Z,71.70
2018-02-22T17:21:51.787Z,71.00
2018-02-22T17:24:22.078Z,71.60
2018-02-22T17:26:55.143Z,71.90
2018-02-22T17:29:28.301Z,72.40
2018-02-22T17:32:01.401Z,72.20
2018-02-22T17:34:29.670Z,73.40
2018-02-22T17:36:58.376Z,73.10
2018-02-22T17:39:44.366Z,72.70
2018-02-22T17:42:13.173Z,73.30
2018-02-22T17:44:40.907Z,73.20
2018-02-22T17:47:08.434Z,73.10
2018-02-22T17:49:36.342Z,73.30
2018-02-22T17:54:55.055Z,72.50
2018-02-22T17:57:22.592Z,72.20
2018-02-22T17:59:50.241Z,72.80
2018-02-22T18:02:17.734Z,72.80
2018-02-22T18:04:46.814Z,73.20
2018-02-22T18:07:14.364Z,73.70
2018-02-22T18:09:41.926Z,73.90
2018-02-22T18:12:09.462Z,74.20
2018-02-22T18:14:36.970Z,74.70
2018-02-22T18:17:04.483Z,74.60
2018-02-22T18:19:32.067Z,75.20
2018-02-22T18:21:59.568Z,75.30
2018-02-22T18:24:27.152Z,75.40
2018-02-22T18:26:54.729Z,75.60
2018-02-22T18:29:22.335Z,75.90
2018-02-22T18:31:50.212Z,75.90
2018-02-22T18:34:18.499Z,75.80
2018-02-22T18:36:47.026Z,75.40
2018-02-22T18:39:17.267Z,75.10
2018-02-22T18:41:50.467Z,75.60
2018-02-22T18:44:23.707Z,75.40
2018-02-22T18:46:52.055Z,76.00
2018-02-22T18:49:19.559Z,76.40
2018-02-22T18:51:47.075Z,76.40
2018-02-22T18:54:14.609Z,76.00
2018-02-22T18:56:42.143Z,74.90
2018-02-22T18:59:09.996Z,75.50
2018-02-22T19:01:37.480Z,75.40
2018-02-22T19:04:04.968Z,75.60
2018-02-22T19:06:32.511Z,74.50
2018-02-22T19:09:00.055Z,74.80
2018-02-22T19:11:27.638Z,74.20
2018-02-22T19:13:55.358Z,73.90
2018-02-22T19:16:22.853Z,74.50
2018-02-22T19:18:50.360Z,74.30
2018-02-22T19:21:17.923Z,74.20
2018-02-22T19:23:45.411Z,74.80
2018-02-22T19:26:12.907Z,74.00
2018-02-22T19:28:40.392Z,74.10
2018-02-22T19:31:07.897Z,73.60
2018-02-22T19:33:35.388Z,74.30
2018-02-22T19:36:02.895Z,74.40
2018-02-22T19:38:30.403Z,73.80
2018-02-22T19:40:57.914Z,74.10
2018-02-22T19:43:25.436Z,73.00
2018-02-22T19:45:53.770Z,73.60
2018-02-22T19:48:21.284Z,72.60
2018-02-22T19:50:49.868Z,72.70
2018-02-22T19:53:17.382Z,73.40
2018-02-22T19:55:45.662Z,74.10
2018-02-22T19:58:14.121Z,74.00
2018-02-22T20:00:41.641Z,73.80
2018-02-22T20:03:10.137Z,74.10
2018-02-22T20:05:38.382Z,74.20
2018-02-22T20:08:05.951Z,74.20
2018-02-22T20:10:34.276Z,74.30
2018-02-22T20:13:01.984Z,74.50
2018-02-22T20:15:29.481Z,74.30
2018-02-22T20:17:56.997Z,74.20
2018-02-22T20:20:24.529Z,74.20
2018-02-22T20:22:52.778Z,74.80
2018-02-22T20:25:20.880Z,74.60
2018-02-22T20:27:49.154Z,74.90
2018-02-22T20:30:17.499Z,75.30
2018-02-22T20:32:45.015Z,74.90
2018-02-22T20:35:12.513Z,74.60
2018-02-22T20:37:40.020Z,75.40
2018-02-22T20:40:09.135Z,75.50
2018-02-22T20:42:36.646Z,74.80
2018-02-22T20:45:04.155Z,74.80
2018-02-22T20:47:31.639Z,75.30
2018-02-22T20:50:00.152Z,74.60
2018-02-22T20:52:32.878Z,75.50
2018-02-22T20:55:01.699Z,75.30
2018-02-22T20:57:29.202Z,75.40
2018-02-22T20:59:56.702Z,74.80
2018-02-22T21:02:25.162Z,74.70
2018-02-22T21:04:52.692Z,75.00
2018-02-22T21:07:20.218Z,75.60
2018-02-22T21:09:48.583Z,75.40
2018-02-22T21:12:16.075Z,75.50
2018-02-22T21:14:44.348Z,75.90
2018-02-22T21:17:12.635Z,76.00
2018-02-22T21:19:43.212Z,76.10
2018-02-22T21:22:10.702Z,75.70
2018-02-22T21:24:38.193Z,75.70
2018-02-22T21:27:05.687Z,75.30
2018-02-22T21:29:33.155Z,74.70
2018-02-22T21:32:00.675Z,74.80
2018-02-22T21:34:28.176Z,75.20
2018-02-22T21:36:56.032Z,75.60
2018-02-22T21:39:23.535Z,75.50
2018-02-22T21:41:51.790Z,75.80
2018-02-22T21:44:19.334Z,75.80
2018-02-22T21:46:46.828Z,76.10
2018-02-22T21:49:15.093Z,76.60
2018-02-22T21:51:42.618Z,76.50
2018-02-22T21:54:10.114Z,76.10
2018-02-22T21:56:38.398Z,76.50
2018-02-22T21:59:06.829Z,76.20
2018-02-22T22:01:34.343Z,76.80
2018-02-22T22:04:02.262Z,76.80
2018-02-22T22:06:29.756Z,76.70
2018-02-22T22:08:57.297Z,77.10
2018-02-22T22:11:24.779Z,76.80
2018-02-22T22:13:52.655Z,76.70
2018-02-22T22:16:20.169Z,77.40
2018-02-22T22:18:47.672Z,76.90
2018-02-22T22:21:15.229Z,77.10
2018-02-22T22:23:42.732Z,77.00
2018-02-22T22:26:10.225Z,77.00
2018-02-22T22:28:44.385Z,77.70
2018-02-22T22:31:11.881Z,77.60
2018-02-22T22:33:40.072Z,77.40
2018-02-22T22:36:07.545Z,77.70
2018-02-22T22:38:35.861Z,77.60
2018-02-22T22:41:03.336Z,78.10
2018-02-22T22:43:30.877Z,77.90
2018-02-22T22:45:58.348Z,78.30
2018-02-22T22:48:25.839Z,78.10
2018-02-22T22:50:54.094Z,78.60
2018-02-22T22:53:21.634Z,78.50
2018-02-22T22:55:49.135Z,78.10
2018-02-22T22:58:16.650Z,78.00
2018-02-22T23:00:44.122Z,78.60
2018-02-22T23:03:11.626Z,78.50
2018-02-22T23:05:39.117Z,78.50
2018-02-22T23:08:06.590Z,78.20
2018-02-22T23:10:34.102Z,78.40
2018-02-22T23:13:01.605Z,78.70
2018-02-22T23:15:29.066Z,78.00
2018-02-22T23:17:56.567Z,78.20
2018-02-22T23:20:24.037Z,78.70
2018-02-22T23:22:51.532Z,78.70
2018-02-22T23:25:19.058Z,78.60
2018-02-22T23:27:46.594Z,78.70
2018-02-22T23:30:14.110Z,78.60
2018-02-22T23:32:41.629Z,78.50
2018-02-22T23:35:09.129Z,79.10
2018-02-22T23:37:36.610Z,80.20
2018-02-22T23:40:04.498Z,79.10
2018-02-22T23:42:34.507Z,79.10
2018-02-22T23:45:01.987Z,79.80
2018-02-22T23:47:29.522Z,79.40
2018-02-22T23:49:56.984Z,79.90
2018-02-22T23:52:24.491Z,80.00
2018-02-22T23:54:52.770Z,79.80
2018-02-22T23:57:20.271Z,79.70
2018-02-22T23:59:47.758Z,79.90
